Terminal Aerodrome Forecast
Issued by NWS

Home | Current Version | Previous Version | Text Only | Print | Product List | Glossary On
Versions: 1 2 3 4 5 6 7 8 9 10 11 12 13 14 15 16 17 18 19 20 21 22 23 24 25 26 27 28 29 30 31 32 33 34 35 36 37
691
FTUS41 KBOX 191410 AAA
TAFHYA
TAF AMD
KHYA 191410Z 1914/2012 33008KT 1SM BR OVC003
     FM191500 VRB03KT 3SM BR OVC005
     FM191600 22006KT P6SM SCT006 BKN100
     FM192100 22008KT P6SM SKC
     FM200800 27004KT P6SM FEW250=

USA.gov is the U.S. government's official web portal to all federal, state and local government web resources and services.